Seaspan Osprey — CFN6644 — position and weather

sailwx.info

Track history (hours):
 
Tides and Currents Weather Stations Pressure Air Temp Water Temp Dewpoint Dewpoint Depression Visibility Wind Speed Wind Dir Waves Ship Positions

Seaspan Osprey

Last reported at 2018-Jul-20 01:00 UTC. Time now 2018-Jul-20 01:01 UTC.
Position N 49°18' W 123°06'.

Length 26 m; draft 5.4 m.

Type: Tug. MMSI: 316020868.

Date/timePositionNaut miles runAvg speedWind from/ knotsBaromVisibWave heightAir tempDewpointWater temp
2018-Jul-20 01:00N 49°18' W 123°06'1 2.3
2018-Jul-20 00:30N 49°19' W 123°06'0 0.1
2018-Jul-20 00:00N 49°19' W 123°06'2 3.1
2018-Jul-19 23:29N 49°19' W 123°08'4 8.7
2018-Jul-19 23:00N 49°18' W 123°15'5 7.8
2018-Jul-19 22:25N 49°14' W 123°18'4 2.9
2018-Jul-19 20:59N 49°18' W 123°16'5 9.9
2018-Jul-19 20:30N 49°19' W 123°08'1 2.6
2018-Jul-19 20:00N 49°19' W 123°06'0 0.0
2018-Jul-19 19:30N 49°19' W 123°06'0 0.0
2018-Jul-19 18:58N 49°19' W 123°06'0 0.0
2018-Jul-19 18:30N 49°19' W 123°06'0 0.0
2018-Jul-19 18:00N 49°19' W 123°06'0 0.0
2018-Jul-19 17:30N 49°19' W 123°06'0 0.7
2018-Jul-19 17:00N 49°18' W 123°06'0 0.2
2018-Jul-19 16:30N 49°18' W 123°06'0 0.5
2018-Jul-19 16:00N 49°19' W 123°06'0 0.0
2018-Jul-19 15:30N 49°19' W 123°06'0 0.0
2018-Jul-19 15:00N 49°19' W 123°06'0 0.0
2018-Jul-19 14:30N 49°19' W 123°06'4 3.7
2018-Jul-19 13:29N 49°18' W 123°01'3 5.2
2018-Jul-19 13:00N 49°18' W 122°57'3 5.4
2018-Jul-19 12:30N 49°18' W 122°53'1 1.1
2018-Jul-19 12:00N 49°17' W 122°52'0 0.5
2018-Jul-19 11:30N 49°17' W 122°52'0 0.0
2018-Jul-19 11:00N 49°17' W 122°52'0 0.0
2018-Jul-19 10:30N 49°17' W 122°52'0 0.0
2018-Jul-19 10:00N 49°17' W 122°52'0 0.0
2018-Jul-19 09:30N 49°17' W 122°52'0 0.6
2018-Jul-19 09:00N 49°17' W 122°52'0 0.3
2018-Jul-19 08:29N 49°17' W 122°52'0 0.1
2018-Jul-19 08:00N 49°17' W 122°52'1 2.3
2018-Jul-19 07:30N 49°18' W 122°54'3 5.0
2018-Jul-19 07:00N 49°18' W 122°57'3 6.4
2018-Jul-19 06:30N 49°18' W 123°02'2 3.3
2018-Jul-19 06:00N 49°18' W 123°05'0 0.4
2018-Jul-19 05:30N 49°18' W 123°05'1 2.1
2018-Jul-19 05:00N 49°19' W 123°06'0 0.2
2018-Jul-19 04:30N 49°19' W 123°06'0 0.0
2018-Jul-19 04:00N 49°19' W 123°06'0 0.0
2018-Jul-19 03:30N 49°19' W 123°06'0 0.0
2018-Jul-19 03:00N 49°19' W 123°06'0 0.0
2018-Jul-19 02:30N 49°19' W 123°06'0 0.0
2018-Jul-19 02:00N 49°19' W 123°06'0 0.0
2018-Jul-19 01:30N 49°19' W 123°06'0 0.0
2018-Jul-19 01:00N 49°19' W 123°06'0 0.0
2018-Jul-19 00:30N 49°19' W 123°06'0 0.0
2018-Jul-19 00:00N 49°19' W 123°06'0 0.0
2018-Jul-18 23:30N 49°19' W 123°06'0 0.0
2018-Jul-18 23:00N 49°19' W 123°06'0 0.0
2018-Jul-18 22:30N 49°19' W 123°06'0 0.0
2018-Jul-18 22:00N 49°19' W 123°06'0 0.0
2018-Jul-18 21:30N 49°19' W 123°06'0 0.0
2018-Jul-18 21:00N 49°19' W 123°06'0 0.0
2018-Jul-18 20:30N 49°19' W 123°06'0 0.0
2018-Jul-18 20:00N 49°19' W 123°06'0 0.0
2018-Jul-18 19:30N 49°19' W 123°06'0 0.0
2018-Jul-18 19:00N 49°19' W 123°06'0 0.0
2018-Jul-18 18:30N 49°19' W 123°06'2 3.9
2018-Jul-18 18:00N 49°18' W 123°04'2 3.9
2018-Jul-18 17:29N 49°18' W 123°00'2 3.7
2018-Jul-18 17:00N 49°18' W 123°03'1 2.5
2018-Jul-18 16:30N 49°18' W 123°05'0 0.1
2018-Jul-18 16:00N 49°18' W 123°05'0 0.0
2018-Jul-18 15:29N 49°18' W 123°05'0 0.0
2018-Jul-18 15:00N 49°18' W 123°05'1 1.1
2018-Jul-18 14:03N 49°18' W 123°03'1 2.1
2018-Jul-18 13:29N 49°17' W 123°05'0 0.4
2018-Jul-18 13:00N 49°17' W 123°05'1 2.2
2018-Jul-18 12:29N 49°18' W 123°06'0 1.0
2018-Jul-18 12:00N 49°18' W 123°07'0 0.0
2018-Jul-18 11:30N 49°18' W 123°07'0 0.0
2018-Jul-18 10:30N 49°18' W 123°07'0 0.0
2018-Jul-18 10:00N 49°18' W 123°07'0 0.0
2018-Jul-18 09:30N 49°18' W 123°07'0 0.0
2018-Jul-18 09:00N 49°18' W 123°07'0 0.0
2018-Jul-18 08:30N 49°18' W 123°07'0 0.0
2018-Jul-18 08:00N 49°18' W 123°07'0 0.0
2018-Jul-18 07:30N 49°18' W 123°07'0 0.0
2018-Jul-18 07:00N 49°18' W 123°07'0 0.0
2018-Jul-18 06:30N 49°18' W 123°07'0 0.0
2018-Jul-18 06:00N 49°18' W 123°07'0 0.0
2018-Jul-18 05:30N 49°18' W 123°07'0 0.0
2018-Jul-18 05:00N 49°18' W 123°07'0 0.0
2018-Jul-18 04:30N 49°18' W 123°07'0 0.1
2018-Jul-18 04:00N 49°18' W 123°07'4 7.2
2018-Jul-18 03:30N 49°18' W 123°13'510.3
2018-Jul-18 02:59N 49°15' W 123°18'510.5
2018-Jul-18 02:29N 49°10' W 123°19'510.1
2018-Jul-18 01:59N 49°04' W 123°19'7 0.7
2018-Jul-17 15:44N 49°01' W 123°09'0 0.2
2018-Jul-17 15:15N 49°01' W 123°09'0 0.0
2018-Jul-17 12:38N 49°01' W 123°09'0 0.0
2018-Jul-17 12:28N 49°01' W 123°09'0 0.8
2018-Jul-17 12:00N 49°01' W 123°09'1 1.1
2018-Jul-17 11:13N 49°01' W 123°10'0 0.0
2018-Jul-17 10:59N 49°01' W 123°10'1 0.8
2018-Jul-17 10:13N 49°01' W 123°11'1 2.1
2018-Jul-17 09:56N 49°01' W 123°10'0 0.0
2018-Jul-17 09:30N 49°01' W 123°10'1 2.3
2018-Jul-17 09:00N 49°01' W 123°09'0 0.0
2018-Jul-17 08:30N 49°01' W 123°09'0 0.0
2018-Jul-17 08:00N 49°01' W 123°09'0 0.0
2018-Jul-17 07:30N 49°01' W 123°09'1 1.4
2018-Jul-17 07:00N 49°01' W 123°09'0 0.0
2018-Jul-17 06:29N 49°01' W 123°09'0 0.0
2018-Jul-17 05:46N 49°01' W 123°09'0 0.0
2018-Jul-17 05:30N 49°01' W 123°09'0 0.3
2018-Jul-17 05:00N 49°01' W 123°09'1 2.2
2018-Jul-17 04:30N 48°60' W 123°09'2 3.9
2018-Jul-17 04:00N 49°01' W 123°09'0 0.0
2018-Jul-17 03:30N 49°01' W 123°09'0 0.0
2018-Jul-17 03:00N 49°01' W 123°09'1 1.3
2018-Jul-17 02:30N 49°01' W 123°09'0 0.0
2018-Jul-17 02:00N 49°01' W 123°09'1 1.3
2018-Jul-17 01:30N 49°01' W 123°09'0 0.0
2018-Jul-17 01:00N 49°01' W 123°09'0 0.0
2018-Jul-17 00:29N 49°01' W 123°09'0 0.0
2018-Jul-16 23:20N 49°01' W 123°09'0 1.3
2018-Jul-16 23:00N 49°01' W 123°09'0 0.2
2018-Jul-16 21:37N 49°01' W 123°09'1 4.7
2018-Jul-16 21:30N 49°01' W 123°09'0 0.4
2018-Jul-16 21:00N 49°01' W 123°09'0 0.0
2018-Jul-16 20:29N 49°01' W 123°09'0 0.0
2018-Jul-16 20:00N 49°01' W 123°09'0 0.0
2018-Jul-16 19:30N 49°01' W 123°09'0 0.0
2018-Jul-16 18:59N 49°01' W 123°09'0 0.0
2018-Jul-16 18:30N 49°01' W 123°09'0 0.0
2018-Jul-16 18:00N 49°01' W 123°09'0 0.0
2018-Jul-16 17:29N 49°01' W 123°09'0 0.0
2018-Jul-16 17:00N 49°01' W 123°09'0 0.0
2018-Jul-16 16:30N 49°01' W 123°09'0 0.0
2018-Jul-16 16:00N 49°01' W 123°09'0 0.0
2018-Jul-16 15:30N 49°01' W 123°09'0 0.0
2018-Jul-16 15:00N 49°01' W 123°09'0 0.2
2018-Jul-16 13:58N 49°01' W 123°09'1 2.6
2018-Jul-16 13:30N 49°00' W 123°09'1 2.3
2018-Jul-16 12:59N 49°01' W 123°09'0 0.6
2018-Jul-16 12:30N 49°01' W 123°09'0 0.0
2018-Jul-16 12:00N 49°01' W 123°09'0 0.5
2018-Jul-16 11:16N 49°01' W 123°09'0 1.1
2018-Jul-16 11:00N 49°01' W 123°09'1 1.1
2018-Jul-16 10:30N 49°01' W 123°09'0 0.2
2018-Jul-16 09:59N 49°01' W 123°09'0 0.0
2018-Jul-16 09:30N 49°01' W 123°09'0 0.0
2018-Jul-16 09:00N 49°01' W 123°09'0 0.0
2018-Jul-16 08:29N 49°01' W 123°09'0 0.0
2018-Jul-16 08:00N 49°01' W 123°09'0 0.0
2018-Jul-16 07:30N 49°01' W 123°09'0 0.0
2018-Jul-16 06:59N 49°01' W 123°09'0 0.0
2018-Jul-16 06:30N 49°01' W 123°09'0 0.0
2018-Jul-16 06:00N 49°01' W 123°09'0 0.0
2018-Jul-16 05:30N 49°01' W 123°09'0 0.0
2018-Jul-16 05:00N 49°01' W 123°09'0 0.0
2018-Jul-16 04:30N 49°01' W 123°09'0 0.0
2018-Jul-16 04:00N 49°01' W 123°09'0 0.0
2018-Jul-16 03:30N 49°01' W 123°09'0 0.0
2018-Jul-16 03:00N 49°01' W 123°09'0 0.0
2018-Jul-16 02:30N 49°01' W 123°09'0 0.0
2018-Jul-16 02:00N 49°01' W 123°09'0 0.0
2018-Jul-16 01:30N 49°01' W 123°09'0 0.0
2018-Jul-16 01:00N 49°01' W 123°09'0 0.0
2018-Jul-16 00:30N 49°01' W 123°09'0 0.0
2018-Jul-16 00:00N 49°01' W 123°09'0 0.0
2018-Jul-15 23:30N 49°01' W 123°09'0 0.0
2018-Jul-15 23:00N 49°01' W 123°09'0 0.0
2018-Jul-15 22:30N 49°01' W 123°09'0 0.0
2018-Jul-15 22:00N 49°01' W 123°09'0 0.0
2018-Jul-15 21:30N 49°01' W 123°09'0 0.0
2018-Jul-15 21:00N 49°01' W 123°09'0 0.0
2018-Jul-15 20:30N 49°01' W 123°09'0 0.0
2018-Jul-15 20:00N 49°01' W 123°09'0 0.0
2018-Jul-15 19:29N 49°01' W 123°09'0 0.0
2018-Jul-15 18:21N 49°01' W 123°09'0 0.0
2018-Jul-15 18:00N 49°01' W 123°09'0 0.0
2018-Jul-15 17:30N 49°01' W 123°09'0 0.0
2018-Jul-15 17:00N 49°01' W 123°09'0 0.0
2018-Jul-15 16:30N 49°01' W 123°09'0 0.0
2018-Jul-15 15:59N 49°01' W 123°09'0 0.0
2018-Jul-15 15:30N 49°01' W 123°09'0 0.0
2018-Jul-15 15:00N 49°01' W 123°09'1 1.8
2018-Jul-15 14:21N 49°01' W 123°10'0 0.0
2018-Jul-15 14:00N 49°01' W 123°10'0 0.2
2018-Jul-15 13:30N 49°01' W 123°10'1 2.5
2018-Jul-15 12:59N 49°01' W 123°12'1 2.9
2018-Jul-15 12:30N 49°00' W 123°10'0 0.3
2018-Jul-15 11:57N 49°01' W 123°10'0 0.1
2018-Jul-15 11:26N 49°01' W 123°10'1 2.8
2018-Jul-15 11:00N 49°02' W 123°09'0 0.1
2018-Jul-15 10:29N 49°01' W 123°09'0 0.0
2018-Jul-15 09:58N 49°01' W 123°09'0 0.0
2018-Jul-15 09:30N 49°01' W 123°09'0 0.0
2018-Jul-15 08:59N 49°01' W 123°09'1 1.8
2018-Jul-15 08:30N 49°01' W 123°09'0 0.9
2018-Jul-15 08:00N 49°01' W 123°09'0 0.2
2018-Jul-15 05:24N 49°01' W 123°09'0 0.0
2018-Jul-15 05:00N 49°01' W 123°09'0 0.0
2018-Jul-15 04:30N 49°01' W 123°09'0 0.0
2018-Jul-15 03:57N 49°01' W 123°09'0 0.0
2018-Jul-15 03:30N 49°01' W 123°09'0 0.0
2018-Jul-15 03:00N 49°01' W 123°09'0 0.0
2018-Jul-15 02:30N 49°01' W 123°09'0 0.0
2018-Jul-15 02:00N 49°01' W 123°09'0 0.0
2018-Jul-15 01:28N 49°01' W 123°09'0 0.0
2018-Jul-15 01:00N 49°01' W 123°09'0 0.0
2018-Jul-15 00:30N 49°01' W 123°09'0 0.0
2018-Jul-14 23:57N 49°01' W 123°09'0 0.0
2018-Jul-14 20:43N 49°01' W 123°09'0 0.0
2018-Jul-14 20:28N 49°01' W 123°09'0 0.0
2018-Jul-14 20:00N 49°01' W 123°09'0 0.0
2018-Jul-14 19:29N 49°01' W 123°09'0 0.0
2018-Jul-14 19:00N 49°01' W 123°09'0 0.0
2018-Jul-14 18:30N 49°01' W 123°09'0 0.0
2018-Jul-14 18:00N 49°01' W 123°09'0 0.0
2018-Jul-14 17:30N 49°01' W 123°09'0 0.0
2018-Jul-14 17:00N 49°01' W 123°09'0 0.0
2018-Jul-14 16:30N 49°01' W 123°09'0 0.0
2018-Jul-14 15:58N 49°01' W 123°09'0 0.0
2018-Jul-14 15:30N 49°01' W 123°09'0 0.0
2018-Jul-14 15:00N 49°01' W 123°09'0 0.0
2018-Jul-14 00:09N 49°01' W 123°09'0 0.5
2018-Jul-13 23:38N 49°01' W 123°09'0 0.8
2018-Jul-13 23:30N 49°01' W 123°09'0 0.4
2018-Jul-13 22:59N 49°01' W 123°09'0 0.0
2018-Jul-13 22:29N 49°01' W 123°09'0 0.0
2018-Jul-13 22:00N 49°01' W 123°09'0 0.0
2018-Jul-13 21:28N 49°01' W 123°09'0 0.0
2018-Jul-13 20:57N 49°01' W 123°09'0 0.0
2018-Jul-13 19:38N 49°01' W 123°09'0 0.0
2018-Jul-13 19:15N 49°01' W 123°09'0 0.0
2018-Jul-13 18:57N 49°01' W 123°09'1 1.7
2018-Jul-13 18:30N 49°01' W 123°09'1 1.6
2018-Jul-13 18:00N 49°01' W 123°09'0 0.0
2018-Jul-13 17:30N 49°01' W 123°09'0 0.0
2018-Jul-13 16:56N 49°01' W 123°09'0 0.0
2018-Jul-13 16:29N 49°01' W 123°09'0 0.0
2018-Jul-13 16:00N 49°01' W 123°09'1 1.5
2018-Jul-13 15:30N 49°01' W 123°09'0 0.0
2018-Jul-13 15:00N 49°01' W 123°09'0 0.0
2018-Jul-13 14:00N 49°01' W 123°09'1 2.6
2018-Jul-13 13:30N 48°60' W 123°09'2 3.6
2018-Jul-13 12:57N 49°01' W 123°09'0 0.0
2018-Jul-13 12:30N 49°01' W 123°09'1 1.1
2018-Jul-13 12:00N 49°01' W 123°09'0 0.5
2018-Jul-13 11:30N 49°01' W 123°09'0 0.1
2018-Jul-13 06:34N 49°01' W 123°09'0 0.0
2018-Jul-13 06:30N 49°01' W 123°09'0 0.3
2018-Jul-13 06:00N 49°01' W 123°09'1 1.7
2018-Jul-13 05:22N 48°60' W 123°10'2 4.4
2018-Jul-13 05:00N 49°01' W 123°09'0 0.0
2018-Jul-13 04:30N 49°01' W 123°09'2 2.8
2018-Jul-13 03:57N 49°00' W 123°10'510.6
2018-Jul-13 03:30N 49°03' W 123°17'610.8
2018-Jul-13 02:59N 49°08' W 123°19'610.6
2018-Jul-13 02:26N 49°14' W 123°18'5 9.0
2018-Jul-13 01:54N 49°18' W 123°14'3 8.2
2018-Jul-13 01:30N 49°19' W 123°09'2 3.8
2018-Jul-13 01:00N 49°19' W 123°06'0 0.0
2018-Jul-13 00:30N 49°19' W 123°06'0 0.0
2018-Jul-13 00:00N 49°19' W 123°06'0 0.0
2018-Jul-12 23:30N 49°19' W 123°06'0 0.0
2018-Jul-12 23:00N 49°19' W 123°06'0 0.0
2018-Jul-12 22:30N 49°19' W 123°06'0 0.0
2018-Jul-12 22:00N 49°19' W 123°06'0 0.0
2018-Jul-12 21:29N 49°19' W 123°06'0 0.0
2018-Jul-12 21:00N 49°19' W 123°06'0 0.0
2018-Jul-12 20:30N 49°19' W 123°06'0 0.0
2018-Jul-12 20:00N 49°19' W 123°06'0 0.0
2018-Jul-12 19:29N 49°19' W 123°06'0 0.0
2018-Jul-12 19:00N 49°19' W 123°06'0 0.0
2018-Jul-12 18:30N 49°19' W 123°06'0 0.0
2018-Jul-12 18:00N 49°19' W 123°06'0 0.0
2018-Jul-12 17:30N 49°19' W 123°06'0 0.0
2018-Jul-12 17:00N 49°19' W 123°06'0 0.0
2018-Jul-12 16:30N 49°19' W 123°06'0 0.0
2018-Jul-12 16:00N 49°19' W 123°06'0 0.0
2018-Jul-12 15:30N 49°19' W 123°06'0 0.0
2018-Jul-12 15:00N 49°19' W 123°06'0 0.0
2018-Jul-12 14:30N 49°19' W 123°06'0 0.0
2018-Jul-12 13:59N 49°19' W 123°06'0 0.0
2018-Jul-12 13:30N 49°19' W 123°06'0 0.0
2018-Jul-12 13:00N 49°19' W 123°06'0 0.0
2018-Jul-12 12:30N 49°19' W 123°06'0 0.5
2018-Jul-12 12:00N 49°18' W 123°06'5 9.1
2018-Jul-12 11:30N 49°18' W 123°13'510.3
2018-Jul-12 11:00N 49°14' W 123°18'510.9
2018-Jul-12 10:30N 49°09' W 123°19'510.6
2018-Jul-12 10:00N 49°04' W 123°18'611.1
2018-Jul-12 09:30N 49°01' W 123°11'1 2.5
2018-Jul-12 09:00N 49°01' W 123°09'1 1.1
2018-Jul-12 08:30N 49°01' W 123°09'0 0.0
2018-Jul-12 08:00N 49°01' W 123°09'0 0.0
2018-Jul-12 07:29N 49°01' W 123°09'0 0.0
2018-Jul-12 06:59N 49°01' W 123°09'0 0.0
2018-Jul-12 06:28N 49°01' W 123°09'0 0.0
2018-Jul-12 05:52N 49°01' W 123°09'0 0.0
2018-Jul-12 05:30N 49°01' W 123°09'0 0.0
2018-Jul-12 04:58N 49°01' W 123°09'0 0.0
2018-Jul-12 04:28N 49°01' W 123°09'0 0.0
2018-Jul-12 04:00N 49°01' W 123°09'0 0.0
2018-Jul-12 03:28N 49°01' W 123°09'0 0.0
2018-Jul-12 03:00N 49°01' W 123°09'0 0.0
2018-Jul-12 02:30N 49°01' W 123°09'0 0.0
2018-Jul-12 01:57N 49°01' W 123°09'0 0.0
2018-Jul-12 01:30N 49°01' W 123°09'0 0.0
2018-Jul-12 00:59N 49°01' W 123°09'0 0.0
2018-Jul-12 00:28N 49°01' W 123°09'0 0.0
2018-Jul-12 00:00N 49°01' W 123°09'0 0.0
2018-Jul-11 23:29N 49°01' W 123°09'0 0.0
2018-Jul-11 22:59N 49°01' W 123°09'0 0.0
2018-Jul-11 22:29N 49°01' W 123°09'0 0.0
2018-Jul-11 21:25N 49°01' W 123°09'0 0.6
2018-Jul-11 21:00N 49°01' W 123°09'0 0.8
2018-Jul-11 20:30N 49°01' W 123°09'0 0.0
2018-Jul-11 20:00N 49°01' W 123°09'0 0.1
2018-Jul-11 19:30N 49°01' W 123°09'0 0.7
2018-Jul-11 19:00N 49°01' W 123°09'0 0.6
2018-Jul-11 18:18N 49°01' W 123°09'1 1.7
2018-Jul-11 17:55N 49°01' W 123°09'0 0.0
2018-Jul-11 17:30N 49°01' W 123°09'1 1.3
2018-Jul-11 17:00N 49°01' W 123°09'0 0.0
2018-Jul-11 16:30N 49°01' W 123°09'0 0.0
2018-Jul-11 15:59N 49°01' W 123°09'0 0.0
2018-Jul-11 15:28N 49°01' W 123°09'0 0.0
2018-Jul-11 12:22N 49°01' W 123°09'0 0.0
2018-Jul-11 11:55N 49°01' W 123°09'1 2.2
2018-Jul-11 11:30N 49°01' W 123°09'0 0.4
2018-Jul-11 10:17N 49°01' W 123°10'0 1.3
2018-Jul-11 09:56N 49°00' W 123°11'0 1.0
2018-Jul-11 09:30N 49°01' W 123°10'0 0.5
2018-Jul-11 09:00N 49°01' W 123°10'1 1.5
2018-Jul-11 08:17N 49°01' W 123°09'0 0.0
2018-Jul-11 07:17N 49°01' W 123°09'0 0.0
2018-Jul-11 06:47N 49°01' W 123°09'0 0.0
2018-Jul-11 05:32N 49°01' W 123°09'0 0.0
2018-Jul-11 05:30N 49°01' W 123°09'0 0.0
2018-Jul-11 05:00N 49°01' W 123°09'0 0.0
2018-Jul-11 04:23N 49°01' W 123°09'0 0.0
2018-Jul-11 03:55N 49°01' W 123°09'0 0.0
2018-Jul-11 03:25N 49°01' W 123°09'0 0.0
2018-Jul-11 02:58N 49°01' W 123°09'0 0.0
2018-Jul-11 02:30N 49°01' W 123°09'0 0.0
2018-Jul-11 02:00N 49°01' W 123°09'0 0.0
2018-Jul-11 00:49N 49°01' W 123°09'0 0.0
2018-Jul-10 22:50N 49°01' W 123°09'0 0.0
2018-Jul-10 19:59N 49°01' W 123°09'0 0.0
2018-Jul-10 18:35N 49°01' W 123°09'0 0.0
2018-Jul-10 18:10N 49°01' W 123°09'0 0.0
2018-Jul-10 17:58N 49°01' W 123°09'0 0.0
2018-Jul-10 17:30N 49°01' W 123°09'0 0.4
2018-Jul-10 17:00N 49°01' W 123°09'0 0.3
2018-Jul-10 16:30N 49°01' W 123°09'1 2.9
2018-Jul-10 16:00N 48°60' W 123°10'1 2.2
2018-Jul-10 15:30N 49°01' W 123°09'0 0.0
2018-Jul-10 15:00N 49°01' W 123°09'0 0.0
2018-Jul-10 14:30N 49°01' W 123°09'0 0.2
2018-Jul-10 14:00N 49°01' W 123°09'1 2.0
2018-Jul-10 13:30N 48°60' W 123°09'2 3.6
2018-Jul-10 13:00N 49°02' W 123°09'0 0.0
2018-Jul-10 11:40N 49°01' W 123°09'0 0.0
2018-Jul-10 11:29N 49°01' W 123°09'0 0.0
2018-Jul-10 10:52N 49°01' W 123°09'0 0.0
2018-Jul-10 10:21N 49°01' W 123°09'0 0.0
2018-Jul-10 09:56N 49°01' W 123°09'0 0.0
2018-Jul-10 09:29N 49°01' W 123°09'0 0.0
2018-Jul-10 09:00N 49°01' W 123°09'0 0.0
2018-Jul-10 08:29N 49°01' W 123°09'0 0.0
2018-Jul-10 08:00N 49°01' W 123°09'0 0.0
2018-Jul-10 07:28N 49°01' W 123°09'0 0.0
2018-Jul-10 06:58N 49°01' W 123°09'0 0.0
2018-Jul-10 06:30N 49°01' W 123°09'1 1.1
2018-Jul-10 05:55N 49°01' W 123°09'0 0.0
2018-Jul-10 05:30N 49°01' W 123°09'0 0.0
2018-Jul-10 05:00N 49°01' W 123°09'1 0.3
2018-Jul-10 03:05N 49°01' W 123°09'0 0.0
2018-Jul-10 02:39N 49°01' W 123°09'0 0.0
2018-Jul-10 01:33N 49°01' W 123°09'0 0.0
2018-Jul-10 01:28N 49°01' W 123°09'  
Track history (hours):
 
Tides and Currents Weather Stations Pressure Air Temp Water Temp Dewpoint Dewpoint Depression Visibility Wind Speed Wind Dir Waves Ship Positions

Seaspan Osprey

Last reported at 2018-Jul-20 01:00 UTC. Time now 2018-Jul-20 01:01 UTC.
Position N 49°18' W 123°06'.

Length 26 m; draft 5.4 m.

Type: Tug. MMSI: 316020868.

Date/timePositionNaut miles runAvg speedWind from/ knotsBaromVisibWave heightAir tempDewpointWater temp
2018-Jul-20 01:00N 49°18' W 123°06'1 2.3
2018-Jul-20 00:30N 49°19' W 123°06'0 0.1
2018-Jul-20 00:00N 49°19' W 123°06'2 3.1
2018-Jul-19 23:29N 49°19' W 123°08'4 8.7
2018-Jul-19 23:00N 49°18' W 123°15'5 7.8
2018-Jul-19 22:25N 49°14' W 123°18'4 2.9
2018-Jul-19 20:59N 49°18' W 123°16'5 9.9
2018-Jul-19 20:30N 49°19' W 123°08'1 2.6
2018-Jul-19 20:00N 49°19' W 123°06'0 0.0
2018-Jul-19 19:30N 49°19' W 123°06'0 0.0
2018-Jul-19 18:58N 49°19' W 123°06'0 0.0
2018-Jul-19 18:30N 49°19' W 123°06'0 0.0
2018-Jul-19 18:00N 49°19' W 123°06'0 0.0
2018-Jul-19 17:30N 49°19' W 123°06'0 0.7
2018-Jul-19 17:00N 49°18' W 123°06'0 0.2
2018-Jul-19 16:30N 49°18' W 123°06'0 0.5
2018-Jul-19 16:00N 49°19' W 123°06'0 0.0
2018-Jul-19 15:30N 49°19' W 123°06'0 0.0
2018-Jul-19 15:00N 49°19' W 123°06'0 0.0
2018-Jul-19 14:30N 49°19' W 123°06'4 3.7
2018-Jul-19 13:29N 49°18' W 123°01'3 5.2
2018-Jul-19 13:00N 49°18' W 122°57'3 5.4
2018-Jul-19 12:30N 49°18' W 122°53'1 1.1
2018-Jul-19 12:00N 49°17' W 122°52'0 0.5
2018-Jul-19 11:30N 49°17' W 122°52'0 0.0
2018-Jul-19 11:00N 49°17' W 122°52'0 0.0
2018-Jul-19 10:30N 49°17' W 122°52'0 0.0
2018-Jul-19 10:00N 49°17' W 122°52'0 0.0
2018-Jul-19 09:30N 49°17' W 122°52'0 0.6
2018-Jul-19 09:00N 49°17' W 122°52'0 0.3
2018-Jul-19 08:29N 49°17' W 122°52'0 0.1
2018-Jul-19 08:00N 49°17' W 122°52'1 2.3
2018-Jul-19 07:30N 49°18' W 122°54'3 5.0
2018-Jul-19 07:00N 49°18' W 122°57'3 6.4
2018-Jul-19 06:30N 49°18' W 123°02'2 3.3
2018-Jul-19 06:00N 49°18' W 123°05'0 0.4
2018-Jul-19 05:30N 49°18' W 123°05'1 2.1
2018-Jul-19 05:00N 49°19' W 123°06'0 0.2
2018-Jul-19 04:30N 49°19' W 123°06'0 0.0
2018-Jul-19 04:00N 49°19' W 123°06'0 0.0
2018-Jul-19 03:30N 49°19' W 123°06'0 0.0
2018-Jul-19 03:00N 49°19' W 123°06'0 0.0
2018-Jul-19 02:30N 49°19' W 123°06'0 0.0
2018-Jul-19 02:00N 49°19' W 123°06'0 0.0
2018-Jul-19 01:30N 49°19' W 123°06'0 0.0
2018-Jul-19 01:00N 49°19' W 123°06'0 0.0
2018-Jul-19 00:30N 49°19' W 123°06'0 0.0
2018-Jul-19 00:00N 49°19' W 123°06'0 0.0
2018-Jul-18 23:30N 49°19' W 123°06'0 0.0
2018-Jul-18 23:00N 49°19' W 123°06'0 0.0
2018-Jul-18 22:30N 49°19' W 123°06'0 0.0
2018-Jul-18 22:00N 49°19' W 123°06'0 0.0
2018-Jul-18 21:30N 49°19' W 123°06'0 0.0
2018-Jul-18 21:00N 49°19' W 123°06'0 0.0
2018-Jul-18 20:30N 49°19' W 123°06'0 0.0
2018-Jul-18 20:00N 49°19' W 123°06'0 0.0
2018-Jul-18 19:30N 49°19' W 123°06'0 0.0
2018-Jul-18 19:00N 49°19' W 123°06'0 0.0
2018-Jul-18 18:30N 49°19' W 123°06'2 3.9
2018-Jul-18 18:00N 49°18' W 123°04'2 3.9
2018-Jul-18 17:29N 49°18' W 123°00'2 3.7
2018-Jul-18 17:00N 49°18' W 123°03'1 2.5
2018-Jul-18 16:30N 49°18' W 123°05'0 0.1
2018-Jul-18 16:00N 49°18' W 123°05'0 0.0
2018-Jul-18 15:29N 49°18' W 123°05'0 0.0
2018-Jul-18 15:00N 49°18' W 123°05'1 1.1
2018-Jul-18 14:03N 49°18' W 123°03'1 2.1
2018-Jul-18 13:29N 49°17' W 123°05'0 0.4
2018-Jul-18 13:00N 49°17' W 123°05'1 2.2
2018-Jul-18 12:29N 49°18' W 123°06'0 1.0
2018-Jul-18 12:00N 49°18' W 123°07'0 0.0
2018-Jul-18 11:30N 49°18' W 123°07'0 0.0
2018-Jul-18 10:30N 49°18' W 123°07'0 0.0
2018-Jul-18 10:00N 49°18' W 123°07'0 0.0
2018-Jul-18 09:30N 49°18' W 123°07'0 0.0
2018-Jul-18 09:00N 49°18' W 123°07'0 0.0
2018-Jul-18 08:30N 49°18' W 123°07'0 0.0
2018-Jul-18 08:00N 49°18' W 123°07'0 0.0
2018-Jul-18 07:30N 49°18' W 123°07'0 0.0
2018-Jul-18 07:00N 49°18' W 123°07'0 0.0
2018-Jul-18 06:30N 49°18' W 123°07'0 0.0
2018-Jul-18 06:00N 49°18' W 123°07'0 0.0
2018-Jul-18 05:30N 49°18' W 123°07'0 0.0
2018-Jul-18 05:00N 49°18' W 123°07'0 0.0
2018-Jul-18 04:30N 49°18' W 123°07'0 0.1
2018-Jul-18 04:00N 49°18' W 123°07'4 7.2
2018-Jul-18 03:30N 49°18' W 123°13'510.3
2018-Jul-18 02:59N 49°15' W 123°18'510.5
2018-Jul-18 02:29N 49°10' W 123°19'510.1
2018-Jul-18 01:59N 49°04' W 123°19'7 0.7
2018-Jul-17 15:44N 49°01' W 123°09'0 0.2
2018-Jul-17 15:15N 49°01' W 123°09'0 0.0
2018-Jul-17 12:38N 49°01' W 123°09'0 0.0
2018-Jul-17 12:28N 49°01' W 123°09'0 0.8
2018-Jul-17 12:00N 49°01' W 123°09'1 1.1
2018-Jul-17 11:13N 49°01' W 123°10'0 0.0
2018-Jul-17 10:59N 49°01' W 123°10'1 0.8
2018-Jul-17 10:13N 49°01' W 123°11'1 2.1
2018-Jul-17 09:56N 49°01' W 123°10'0 0.0
2018-Jul-17 09:30N 49°01' W 123°10'1 2.3
2018-Jul-17 09:00N 49°01' W 123°09'0 0.0
2018-Jul-17 08:30N 49°01' W 123°09'0 0.0
2018-Jul-17 08:00N 49°01' W 123°09'0 0.0
2018-Jul-17 07:30N 49°01' W 123°09'1 1.4
2018-Jul-17 07:00N 49°01' W 123°09'0 0.0
2018-Jul-17 06:29N 49°01' W 123°09'0 0.0
2018-Jul-17 05:46N 49°01' W 123°09'0 0.0
2018-Jul-17 05:30N 49°01' W 123°09'0 0.3
2018-Jul-17 05:00N 49°01' W 123°09'1 2.2
2018-Jul-17 04:30N 48°60' W 123°09'2 3.9
2018-Jul-17 04:00N 49°01' W 123°09'0 0.0
2018-Jul-17 03:30N 49°01' W 123°09'0 0.0
2018-Jul-17 03:00N 49°01' W 123°09'1 1.3
2018-Jul-17 02:30N 49°01' W 123°09'0 0.0
2018-Jul-17 02:00N 49°01' W 123°09'1 1.3
2018-Jul-17 01:30N 49°01' W 123°09'0 0.0
2018-Jul-17 01:00N 49°01' W 123°09'0 0.0
2018-Jul-17 00:29N 49°01' W 123°09'0 0.0
2018-Jul-16 23:20N 49°01' W 123°09'0 1.3
2018-Jul-16 23:00N 49°01' W 123°09'0 0.2
2018-Jul-16 21:37N 49°01' W 123°09'1 4.7
2018-Jul-16 21:30N 49°01' W 123°09'0 0.4
2018-Jul-16 21:00N 49°01' W 123°09'0 0.0
2018-Jul-16 20:29N 49°01' W 123°09'0 0.0
2018-Jul-16 20:00N 49°01' W 123°09'0 0.0
2018-Jul-16 19:30N 49°01' W 123°09'0 0.0
2018-Jul-16 18:59N 49°01' W 123°09'0 0.0
2018-Jul-16 18:30N 49°01' W 123°09'0 0.0
2018-Jul-16 18:00N 49°01' W 123°09'0 0.0
2018-Jul-16 17:29N 49°01' W 123°09'0 0.0
2018-Jul-16 17:00N 49°01' W 123°09'0 0.0
2018-Jul-16 16:30N 49°01' W 123°09'0 0.0
2018-Jul-16 16:00N 49°01' W 123°09'0 0.0
2018-Jul-16 15:30N 49°01' W 123°09'0 0.0
2018-Jul-16 15:00N 49°01' W 123°09'0 0.2
2018-Jul-16 13:58N 49°01' W 123°09'1 2.6
2018-Jul-16 13:30N 49°00' W 123°09'1 2.3
2018-Jul-16 12:59N 49°01' W 123°09'0 0.6
2018-Jul-16 12:30N 49°01' W 123°09'0 0.0
2018-Jul-16 12:00N 49°01' W 123°09'0 0.5
2018-Jul-16 11:16N 49°01' W 123°09'0 1.1
2018-Jul-16 11:00N 49°01' W 123°09'1 1.1
2018-Jul-16 10:30N 49°01' W 123°09'0 0.2
2018-Jul-16 09:59N 49°01' W 123°09'0 0.0
2018-Jul-16 09:30N 49°01' W 123°09'0 0.0
2018-Jul-16 09:00N 49°01' W 123°09'0 0.0
2018-Jul-16 08:29N 49°01' W 123°09'0 0.0
2018-Jul-16 08:00N 49°01' W 123°09'0 0.0
2018-Jul-16 07:30N 49°01' W 123°09'0 0.0
2018-Jul-16 06:59N 49°01' W 123°09'0 0.0
2018-Jul-16 06:30N 49°01' W 123°09'0 0.0
2018-Jul-16 06:00N 49°01' W 123°09'0 0.0
2018-Jul-16 05:30N 49°01' W 123°09'0 0.0
2018-Jul-16 05:00N 49°01' W 123°09'0 0.0
2018-Jul-16 04:30N 49°01' W 123°09'0 0.0
2018-Jul-16 04:00N 49°01' W 123°09'0 0.0
2018-Jul-16 03:30N 49°01' W 123°09'0 0.0
2018-Jul-16 03:00N 49°01' W 123°09'0 0.0
2018-Jul-16 02:30N 49°01' W 123°09'0 0.0
2018-Jul-16 02:00N 49°01' W 123°09'0 0.0
2018-Jul-16 01:30N 49°01' W 123°09'0 0.0
2018-Jul-16 01:00N 49°01' W 123°09'0 0.0
2018-Jul-16 00:30N 49°01' W 123°09'0 0.0
2018-Jul-16 00:00N 49°01' W 123°09'0 0.0
2018-Jul-15 23:30N 49°01' W 123°09'0 0.0
2018-Jul-15 23:00N 49°01' W 123°09'0 0.0
2018-Jul-15 22:30N 49°01' W 123°09'0 0.0
2018-Jul-15 22:00N 49°01' W 123°09'0 0.0
2018-Jul-15 21:30N 49°01' W 123°09'0 0.0
2018-Jul-15 21:00N 49°01' W 123°09'0 0.0
2018-Jul-15 20:30N 49°01' W 123°09'0 0.0
2018-Jul-15 20:00N 49°01' W 123°09'0 0.0
2018-Jul-15 19:29N 49°01' W 123°09'0 0.0
2018-Jul-15 18:21N 49°01' W 123°09'0 0.0
2018-Jul-15 18:00N 49°01' W 123°09'0 0.0
2018-Jul-15 17:30N 49°01' W 123°09'0 0.0
2018-Jul-15 17:00N 49°01' W 123°09'0 0.0
2018-Jul-15 16:30N 49°01' W 123°09'0 0.0
2018-Jul-15 15:59N 49°01' W 123°09'0 0.0
2018-Jul-15 15:30N 49°01' W 123°09'0 0.0
2018-Jul-15 15:00N 49°01' W 123°09'1 1.8
2018-Jul-15 14:21N 49°01' W 123°10'0 0.0
2018-Jul-15 14:00N 49°01' W 123°10'0 0.2
2018-Jul-15 13:30N 49°01' W 123°10'1 2.5
2018-Jul-15 12:59N 49°01' W 123°12'1 2.9
2018-Jul-15 12:30N 49°00' W 123°10'0 0.3
2018-Jul-15 11:57N 49°01' W 123°10'0 0.1
2018-Jul-15 11:26N 49°01' W 123°10'1 2.8
2018-Jul-15 11:00N 49°02' W 123°09'0 0.1
2018-Jul-15 10:29N 49°01' W 123°09'0 0.0
2018-Jul-15 09:58N 49°01' W 123°09'0 0.0
2018-Jul-15 09:30N 49°01' W 123°09'0 0.0
2018-Jul-15 08:59N 49°01' W 123°09'1 1.8
2018-Jul-15 08:30N 49°01' W 123°09'0 0.9
2018-Jul-15 08:00N 49°01' W 123°09'0 0.2
2018-Jul-15 05:24N 49°01' W 123°09'0 0.0
2018-Jul-15 05:00N 49°01' W 123°09'0 0.0
2018-Jul-15 04:30N 49°01' W 123°09'0 0.0
2018-Jul-15 03:57N 49°01' W 123°09'0 0.0
2018-Jul-15 03:30N 49°01' W 123°09'0 0.0
2018-Jul-15 03:00N 49°01' W 123°09'0 0.0
2018-Jul-15 02:30N 49°01' W 123°09'0 0.0
2018-Jul-15 02:00N 49°01' W 123°09'0 0.0
2018-Jul-15 01:28N 49°01' W 123°09'0 0.0
2018-Jul-15 01:00N 49°01' W 123°09'0 0.0
2018-Jul-15 00:30N 49°01' W 123°09'0 0.0
2018-Jul-14 23:57N 49°01' W 123°09'0 0.0
2018-Jul-14 20:43N 49°01' W 123°09'0 0.0
2018-Jul-14 20:28N 49°01' W 123°09'0 0.0
2018-Jul-14 20:00N 49°01' W 123°09'0 0.0
2018-Jul-14 19:29N 49°01' W 123°09'0 0.0
2018-Jul-14 19:00N 49°01' W 123°09'0 0.0
2018-Jul-14 18:30N 49°01' W 123°09'0 0.0
2018-Jul-14 18:00N 49°01' W 123°09'0 0.0
2018-Jul-14 17:30N 49°01' W 123°09'0 0.0
2018-Jul-14 17:00N 49°01' W 123°09'0 0.0
2018-Jul-14 16:30N 49°01' W 123°09'0 0.0
2018-Jul-14 15:58N 49°01' W 123°09'0 0.0
2018-Jul-14 15:30N 49°01' W 123°09'0 0.0
2018-Jul-14 15:00N 49°01' W 123°09'0 0.0
2018-Jul-14 00:09N 49°01' W 123°09'0 0.5
2018-Jul-13 23:38N 49°01' W 123°09'0 0.8
2018-Jul-13 23:30N 49°01' W 123°09'0 0.4
2018-Jul-13 22:59N 49°01' W 123°09'0 0.0
2018-Jul-13 22:29N 49°01' W 123°09'0 0.0
2018-Jul-13 22:00N 49°01' W 123°09'0 0.0
2018-Jul-13 21:28N 49°01' W 123°09'0 0.0
2018-Jul-13 20:57N 49°01' W 123°09'0 0.0
2018-Jul-13 19:38N 49°01' W 123°09'0 0.0
2018-Jul-13 19:15N 49°01' W 123°09'0 0.0
2018-Jul-13 18:57N 49°01' W 123°09'1 1.7
2018-Jul-13 18:30N 49°01' W 123°09'1 1.6
2018-Jul-13 18:00N 49°01' W 123°09'0 0.0
2018-Jul-13 17:30N 49°01' W 123°09'0 0.0
2018-Jul-13 16:56N 49°01' W 123°09'0 0.0
2018-Jul-13 16:29N 49°01' W 123°09'0 0.0
2018-Jul-13 16:00N 49°01' W 123°09'1 1.5
2018-Jul-13 15:30N 49°01' W 123°09'0 0.0
2018-Jul-13 15:00N 49°01' W 123°09'0 0.0
2018-Jul-13 14:00N 49°01' W 123°09'1 2.6
2018-Jul-13 13:30N 48°60' W 123°09'2 3.6
2018-Jul-13 12:57N 49°01' W 123°09'0 0.0
2018-Jul-13 12:30N 49°01' W 123°09'1 1.1
2018-Jul-13 12:00N 49°01' W 123°09'0 0.5
2018-Jul-13 11:30N 49°01' W 123°09'0 0.1
2018-Jul-13 06:34N 49°01' W 123°09'0 0.0
2018-Jul-13 06:30N 49°01' W 123°09'0 0.3
2018-Jul-13 06:00N 49°01' W 123°09'1 1.7
2018-Jul-13 05:22N 48°60' W 123°10'2 4.4
2018-Jul-13 05:00N 49°01' W 123°09'0 0.0
2018-Jul-13 04:30N 49°01' W 123°09'2 2.8
2018-Jul-13 03:57N 49°00' W 123°10'510.6
2018-Jul-13 03:30N 49°03' W 123°17'610.8
2018-Jul-13 02:59N 49°08' W 123°19'610.6
2018-Jul-13 02:26N 49°14' W 123°18'5 9.0
2018-Jul-13 01:54N 49°18' W 123°14'3 8.2
2018-Jul-13 01:30N 49°19' W 123°09'2 3.8
2018-Jul-13 01:00N 49°19' W 123°06'0 0.0
2018-Jul-13 00:30N 49°19' W 123°06'0 0.0
2018-Jul-13 00:00N 49°19' W 123°06'0 0.0
2018-Jul-12 23:30N 49°19' W 123°06'0 0.0
2018-Jul-12 23:00N 49°19' W 123°06'0 0.0
2018-Jul-12 22:30N 49°19' W 123°06'0 0.0
2018-Jul-12 22:00N 49°19' W 123°06'0 0.0
2018-Jul-12 21:29N 49°19' W 123°06'0 0.0
2018-Jul-12 21:00N 49°19' W 123°06'0 0.0
2018-Jul-12 20:30N 49°19' W 123°06'0 0.0
2018-Jul-12 20:00N 49°19' W 123°06'0 0.0
2018-Jul-12 19:29N 49°19' W 123°06'0 0.0
2018-Jul-12 19:00N 49°19' W 123°06'0 0.0
2018-Jul-12 18:30N 49°19' W 123°06'0 0.0
2018-Jul-12 18:00N 49°19' W 123°06'0 0.0
2018-Jul-12 17:30N 49°19' W 123°06'0 0.0
2018-Jul-12 17:00N 49°19' W 123°06'0 0.0
2018-Jul-12 16:30N 49°19' W 123°06'0 0.0
2018-Jul-12 16:00N 49°19' W 123°06'0 0.0
2018-Jul-12 15:30N 49°19' W 123°06'0 0.0
2018-Jul-12 15:00N 49°19' W 123°06'0 0.0
2018-Jul-12 14:30N 49°19' W 123°06'0 0.0
2018-Jul-12 13:59N 49°19' W 123°06'0 0.0
2018-Jul-12 13:30N 49°19' W 123°06'0 0.0
2018-Jul-12 13:00N 49°19' W 123°06'0 0.0
2018-Jul-12 12:30N 49°19' W 123°06'0 0.5
2018-Jul-12 12:00N 49°18' W 123°06'5 9.1
2018-Jul-12 11:30N 49°18' W 123°13'510.3
2018-Jul-12 11:00N 49°14' W 123°18'510.9
2018-Jul-12 10:30N 49°09' W 123°19'510.6
2018-Jul-12 10:00N 49°04' W 123°18'611.1
2018-Jul-12 09:30N 49°01' W 123°11'1 2.5
2018-Jul-12 09:00N 49°01' W 123°09'1 1.1
2018-Jul-12 08:30N 49°01' W 123°09'0 0.0
2018-Jul-12 08:00N 49°01' W 123°09'0 0.0
2018-Jul-12 07:29N 49°01' W 123°09'0 0.0
2018-Jul-12 06:59N 49°01' W 123°09'0 0.0
2018-Jul-12 06:28N 49°01' W 123°09'0 0.0
2018-Jul-12 05:52N 49°01' W 123°09'0 0.0
2018-Jul-12 05:30N 49°01' W 123°09'0 0.0
2018-Jul-12 04:58N 49°01' W 123°09'0 0.0
2018-Jul-12 04:28N 49°01' W 123°09'0 0.0
2018-Jul-12 04:00N 49°01' W 123°09'0 0.0
2018-Jul-12 03:28N 49°01' W 123°09'0 0.0
2018-Jul-12 03:00N 49°01' W 123°09'0 0.0
2018-Jul-12 02:30N 49°01' W 123°09'0 0.0
2018-Jul-12 01:57N 49°01' W 123°09'0 0.0
2018-Jul-12 01:30N 49°01' W 123°09'0 0.0
2018-Jul-12 00:59N 49°01' W 123°09'0 0.0
2018-Jul-12 00:28N 49°01' W 123°09'0 0.0
2018-Jul-12 00:00N 49°01' W 123°09'0 0.0
2018-Jul-11 23:29N 49°01' W 123°09'0 0.0
2018-Jul-11 22:59N 49°01' W 123°09'0 0.0
2018-Jul-11 22:29N 49°01' W 123°09'0 0.0
2018-Jul-11 21:25N 49°01' W 123°09'0 0.6
2018-Jul-11 21:00N 49°01' W 123°09'0 0.8
2018-Jul-11 20:30N 49°01' W 123°09'0 0.0
2018-Jul-11 20:00N 49°01' W 123°09'0 0.1
2018-Jul-11 19:30N 49°01' W 123°09'0 0.7
2018-Jul-11 19:00N 49°01' W 123°09'0 0.6
2018-Jul-11 18:18N 49°01' W 123°09'1 1.7
2018-Jul-11 17:55N 49°01' W 123°09'0 0.0
2018-Jul-11 17:30N 49°01' W 123°09'1 1.3
2018-Jul-11 17:00N 49°01' W 123°09'0 0.0
2018-Jul-11 16:30N 49°01' W 123°09'0 0.0
2018-Jul-11 15:59N 49°01' W 123°09'0 0.0
2018-Jul-11 15:28N 49°01' W 123°09'0 0.0
2018-Jul-11 12:22N 49°01' W 123°09'0 0.0
2018-Jul-11 11:55N 49°01' W 123°09'1 2.2
2018-Jul-11 11:30N 49°01' W 123°09'0 0.4
2018-Jul-11 10:17N 49°01' W 123°10'0 1.3
2018-Jul-11 09:56N 49°00' W 123°11'0 1.0
2018-Jul-11 09:30N 49°01' W 123°10'0 0.5
2018-Jul-11 09:00N 49°01' W 123°10'1 1.5
2018-Jul-11 08:17N 49°01' W 123°09'0 0.0
2018-Jul-11 07:17N 49°01' W 123°09'0 0.0
2018-Jul-11 06:47N 49°01' W 123°09'0 0.0
2018-Jul-11 05:32N 49°01' W 123°09'0 0.0
2018-Jul-11 05:30N 49°01' W 123°09'0 0.0
2018-Jul-11 05:00N 49°01' W 123°09'0 0.0
2018-Jul-11 04:23N 49°01' W 123°09'0 0.0
2018-Jul-11 03:55N 49°01' W 123°09'0 0.0
2018-Jul-11 03:25N 49°01' W 123°09'0 0.0
2018-Jul-11 02:58N 49°01' W 123°09'0 0.0
2018-Jul-11 02:30N 49°01' W 123°09'0 0.0
2018-Jul-11 02:00N 49°01' W 123°09'0 0.0
2018-Jul-11 00:49N 49°01' W 123°09'0 0.0
2018-Jul-10 22:50N 49°01' W 123°09'0 0.0
2018-Jul-10 19:59N 49°01' W 123°09'0 0.0
2018-Jul-10 18:35N 49°01' W 123°09'0 0.0
2018-Jul-10 18:10N 49°01' W 123°09'0 0.0
2018-Jul-10 17:58N 49°01' W 123°09'0 0.0
2018-Jul-10 17:30N 49°01' W 123°09'0 0.4
2018-Jul-10 17:00N 49°01' W 123°09'0 0.3
2018-Jul-10 16:30N 49°01' W 123°09'1 2.9
2018-Jul-10 16:00N 48°60' W 123°10'1 2.2
2018-Jul-10 15:30N 49°01' W 123°09'0 0.0
2018-Jul-10 15:00N 49°01' W 123°09'0 0.0
2018-Jul-10 14:30N 49°01' W 123°09'0 0.2
2018-Jul-10 14:00N 49°01' W 123°09'1 2.0
2018-Jul-10 13:30N 48°60' W 123°09'2 3.6
2018-Jul-10 13:00N 49°02' W 123°09'0 0.0
2018-Jul-10 11:40N 49°01' W 123°09'0 0.0
2018-Jul-10 11:29N 49°01' W 123°09'0 0.0
2018-Jul-10 10:52N 49°01' W 123°09'0 0.0
2018-Jul-10 10:21N 49°01' W 123°09'0 0.0
2018-Jul-10 09:56N 49°01' W 123°09'0 0.0
2018-Jul-10 09:29N 49°01' W 123°09'0 0.0
2018-Jul-10 09:00N 49°01' W 123°09'0 0.0
2018-Jul-10 08:29N 49°01' W 123°09'0 0.0
2018-Jul-10 08:00N 49°01' W 123°09'0 0.0
2018-Jul-10 07:28N 49°01' W 123°09'0 0.0
2018-Jul-10 06:58N 49°01' W 123°09'0 0.0
2018-Jul-10 06:30N 49°01' W 123°09'1 1.1
2018-Jul-10 05:55N 49°01' W 123°09'0 0.0
2018-Jul-10 05:30N 49°01' W 123°09'0 0.0
2018-Jul-10 05:00N 49°01' W 123°09'1 0.3
2018-Jul-10 03:05N 49°01' W 123°09'0 0.0
2018-Jul-10 02:39N 49°01' W 123°09'0 0.0
2018-Jul-10 01:33N 49°01' W 123°09'0 0.0
2018-Jul-10 01:28N 49°01' W 123°09'  

Dump ship's entire track history